createdAt,value
2019-03-19T00:01:39.445Z,0.16
2019-03-19T00:04:09.858Z,0.16
2019-03-19T00:06:40.126Z,0.06
2019-03-19T00:09:10.444Z,-0.03
2019-03-19T00:11:41.061Z,-0.09
2019-03-19T00:14:13.079Z,-0.17
2019-03-19T00:16:43.362Z,-0.17
2019-03-19T00:19:15.638Z,-0.07
2019-03-19T00:21:45.943Z,-0.11
2019-03-19T00:24:16.532Z,-0.24
2019-03-19T00:26:46.908Z,-0.24
2019-03-19T00:29:17.488Z,-0.29
2019-03-19T00:31:47.813Z,-0.37
2019-03-19T00:34:18.084Z,-0.43
2019-03-19T00:36:48.376Z,-0.48
2019-03-19T00:39:18.723Z,-0.52
2019-03-19T00:41:49.030Z,-0.54
2019-03-19T00:44:19.401Z,-0.49
2019-03-19T00:46:49.680Z,-0.43
2019-03-19T00:49:20.358Z,-0.45
2019-03-19T00:51:50.644Z,-0.50
2019-03-19T00:54:23.756Z,-0.57
2019-03-19T00:56:55.465Z,-0.61
2019-03-19T00:59:30.612Z,-0.67
2019-03-19T01:02:00.860Z,-0.71
2019-03-19T01:04:31.292Z,-0.72
2019-03-19T01:07:01.585Z,-0.74
2019-03-19T01:09:33.612Z,-0.80
2019-03-19T01:12:03.909Z,-0.70
2019-03-19T01:14:34.367Z,-0.70
2019-03-19T01:17:05.292Z,-0.77
2019-03-19T01:19:36.091Z,-0.82
2019-03-19T01:22:06.705Z,-0.88
2019-03-19T01:24:37.021Z,-0.91
2019-03-19T01:27:07.559Z,-0.90
2019-03-19T01:29:37.850Z,-0.78
2019-03-19T01:32:08.181Z,-0.65
2019-03-19T01:34:38.499Z,-0.55
2019-03-19T01:37:10.400Z,-0.44
2019-03-19T01:39:40.923Z,-0.33
2019-03-19T01:42:11.577Z,-0.39
2019-03-19T01:44:41.899Z,-0.46
2019-03-19T01:47:13.670Z,-0.57
2019-03-19T01:49:44.136Z,-0.67
2019-03-19T01:52:14.939Z,-0.76
2019-03-19T01:54:45.225Z,-0.79
2019-03-19T01:57:15.929Z,-0.91
2019-03-19T01:59:46.228Z,-1.03
2019-03-19T02:02:16.518Z,-1.12
2019-03-19T02:04:46.843Z,-1.16
2019-03-19T02:07:17.172Z,-1.17
2019-03-19T02:09:47.767Z,-1.17
2019-03-19T02:12:18.143Z,-1.09
2019-03-19T02:14:48.991Z,-0.71
2019-03-19T02:17:19.338Z,-0.57
2019-03-19T02:19:49.900Z,-0.62
2019-03-19T02:22:20.209Z,-0.57
2019-03-19T02:24:50.546Z,-0.61
2019-03-19T02:27:21.205Z,-0.72
2019-03-19T02:29:51.622Z,-0.87
2019-03-19T02:32:22.187Z,-0.91
2019-03-19T02:34:53.705Z,-0.96
2019-03-19T02:37:23.973Z,-1.01
2019-03-19T02:39:54.275Z,-1.12
2019-03-19T02:42:24.801Z,-1.24
2019-03-19T02:44:56.100Z,-1.35
2019-03-19T02:47:26.430Z,-1.36
2019-03-19T02:49:56.726Z,-1.16
2019-03-19T02:52:26.990Z,-1.03
2019-03-19T02:54:57.601Z,-1.04
2019-03-19T02:57:28.261Z,-1.07
2019-03-19T02:59:58.696Z,-1.08
2019-03-19T03:02:29.153Z,-1.19
2019-03-19T03:04:59.475Z,-1.26
2019-03-19T03:07:29.987Z,-1.21
2019-03-19T03:10:00.554Z,-1.27
2019-03-19T03:12:33.220Z,-1.34
2019-03-19T03:15:03.525Z,-1.34
2019-03-19T03:17:34.928Z,-1.31
2019-03-19T03:20:05.843Z,-1.21
2019-03-19T03:22:36.477Z,-1.16
2019-03-19T03:25:07.261Z,-1.21
2019-03-19T03:27:37.546Z,-1.28
2019-03-19T03:30:09.248Z,-1.34
2019-03-19T03:32:39.585Z,-1.33
2019-03-19T03:35:10.952Z,-1.39
2019-03-19T03:37:41.207Z,-1.50
2019-03-19T03:40:12.566Z,-1.59
2019-03-19T03:42:43.522Z,-1.58
2019-03-19T03:45:14.319Z,-1.50
2019-03-19T03:47:44.591Z,-1.44
2019-03-19T03:50:15.237Z,-1.45
2019-03-19T03:52:45.570Z,-1.46
2019-03-19T03:55:16.291Z,-1.41
2019-03-19T03:57:47.868Z,-1.44
2019-03-19T04:00:18.347Z,-1.42
2019-03-19T04:02:48.901Z,-1.45
2019-03-19T04:05:19.405Z,-1.45
2019-03-19T04:07:49.820Z,-1.48
2019-03-19T04:10:21.145Z,-1.41
2019-03-19T04:12:51.721Z,-1.29
2019-03-19T04:15:23.130Z,-1.23
2019-03-19T04:17:53.622Z,-1.26
2019-03-19T04:20:23.912Z,-1.20
2019-03-19T04:22:54.564Z,-1.21
2019-03-19T04:25:25.832Z,-1.19
2019-03-19T04:27:56.131Z,-1.14
2019-03-19T04:30:26.671Z,-1.08
2019-03-19T04:32:56.974Z,-1.10
2019-03-19T04:35:27.281Z,-1.16
2019-03-19T04:37:57.793Z,-1.40
2019-03-19T04:40:28.102Z,-1.40
2019-03-19T04:42:58.675Z,-1.46
2019-03-19T04:45:29.095Z,-1.44
2019-03-19T04:48:03.630Z,-1.42
2019-03-19T04:50:34.141Z,-1.29
2019-03-19T04:53:07.010Z,-1.10
2019-03-19T04:55:37.326Z,-1.08
2019-03-19T04:58:10.462Z,-1.01
2019-03-19T05:00:42.790Z,-1.00
2019-03-19T05:03:15.140Z,-0.97
2019-03-19T05:05:45.482Z,-1.11
2019-03-19T05:10:53.044Z,-1.11
2019-03-19T05:13:25.025Z,-1.04
2019-03-19T05:15:55.367Z,-1.00
2019-03-19T05:18:26.579Z,-0.96
2019-03-19T05:20:56.856Z,-1.02
2019-03-19T05:23:27.607Z,-1.12
2019-03-19T05:25:57.897Z,-1.12
2019-03-19T05:28:28.551Z,-1.20
2019-03-19T05:30:59.191Z,-1.09
2019-03-19T05:33:32.917Z,-1.13
2019-03-19T05:36:02.223Z,-1.14
2019-03-19T05:38:32.562Z,-1.26
2019-03-19T05:41:03.124Z,-1.24
2019-03-19T05:43:33.444Z,-1.06
2019-03-19T05:46:04.024Z,-1.00
2019-03-19T05:48:35.306Z,-1.07
2019-03-19T05:51:05.653Z,-1.06
2019-03-19T05:53:36.015Z,-0.92
2019-03-19T05:56:06.970Z,-0.86
2019-03-19T05:58:37.637Z,-0.76
2019-03-19T06:01:08.307Z,-0.76
2019-03-19T06:03:38.590Z,-0.63
2019-03-19T06:06:09.846Z,-0.61
2019-03-19T06:08:40.163Z,-0.61
2019-03-19T06:11:12.245Z,-0.61
2019-03-19T06:13:42.541Z,-0.61
2019-03-19T06:16:14.767Z,-0.56
2019-03-19T06:18:45.070Z,-0.57
2019-03-19T06:21:15.367Z,-0.45
2019-03-19T06:23:45.947Z,-0.38
2019-03-19T06:26:17.132Z,-0.28
2019-03-19T06:28:47.603Z,-0.13
2019-03-19T06:31:17.917Z,-0.01
2019-03-19T06:33:48.609Z,0.10
2019-03-19T06:36:18.954Z,0.21
2019-03-19T06:38:49.225Z,0.29
2019-03-19T06:41:19.817Z,0.34
2019-03-19T06:43:50.072Z,0.45
2019-03-19T06:46:20.375Z,0.58
2019-03-19T06:48:51.053Z,0.69
2019-03-19T06:51:21.681Z,0.91
2019-03-19T06:53:53.043Z,0.91
2019-03-19T06:56:24.335Z,1.10
2019-03-19T06:58:55.863Z,1.64
2019-03-19T07:01:26.205Z,3.47
2019-03-19T07:03:56.517Z,4.87
2019-03-19T07:06:26.898Z,5.09
2019-03-19T07:08:57.283Z,5.70
2019-03-19T07:11:27.840Z,7.22
2019-03-19T07:13:59.139Z,8.29
2019-03-19T07:16:29.796Z,9.02
2019-03-19T07:19:00.062Z,8.92
2019-03-19T07:21:30.658Z,9.13
2019-03-19T07:24:00.958Z,9.65
2019-03-19T07:26:31.347Z,11.38
2019-03-19T07:29:01.732Z,13.54
2019-03-19T07:31:32.401Z,15.52
2019-03-19T07:34:02.728Z,16.90
2019-03-19T07:36:34.955Z,16.43
2019-03-19T07:39:08.741Z,15.76
2019-03-19T07:41:40.687Z,14.61
2019-03-19T07:44:11.039Z,16.19
2019-03-19T07:46:45.817Z,17.71
2019-03-19T07:49:16.136Z,19.32
2019-03-19T07:51:47.455Z,21.16
2019-03-19T07:54:17.860Z,21.86
2019-03-19T07:56:49.891Z,22.65
2019-03-19T07:59:20.453Z,22.65
2019-03-19T08:01:51.230Z,22.84
2019-03-19T08:04:21.508Z,24.04
2019-03-19T08:06:51.864Z,24.97
2019-03-19T08:09:22.190Z,25.64
2019-03-19T08:11:52.752Z,24.72
2019-03-19T08:14:23.332Z,23.80
2019-03-19T08:16:54.209Z,24.00
2019-03-19T08:19:24.544Z,24.66
2019-03-19T08:21:55.187Z,24.75
2019-03-19T08:24:26.670Z,26.18
2019-03-19T08:26:57.273Z,27.18
2019-03-19T08:29:27.674Z,27.07
2019-03-19T08:31:58.225Z,26.31
2019-03-19T08:34:28.806Z,26.67
2019-03-19T08:36:59.371Z,27.70
2019-03-19T08:39:29.749Z,28.72
2019-03-19T08:42:00.350Z,29.92
2019-03-19T08:44:30.672Z,28.54
2019-03-19T08:47:01.265Z,29.16
2019-03-19T08:49:34.212Z,27.41
2019-03-19T08:52:04.785Z,27.09
2019-03-19T08:54:35.267Z,25.78
2019-03-19T08:57:06.181Z,25.78
2019-03-19T08:59:36.808Z,25.43
2019-03-19T09:02:07.546Z,25.79
2019-03-19T09:04:38.109Z,25.03
2019-03-19T09:07:08.408Z,27.29
2019-03-19T09:09:39.945Z,28.43
2019-03-19T09:12:10.327Z,29.91
2019-03-19T09:14:40.909Z,31.41
2019-03-19T09:17:11.568Z,32.57
2019-03-19T09:19:43.371Z,32.83
2019-03-19T09:22:15.214Z,33.22
2019-03-19T09:24:45.807Z,33.15
2019-03-19T09:27:16.377Z,31.91
2019-03-19T09:29:46.997Z,30.85
2019-03-19T09:32:17.563Z,29.25
2019-03-19T09:34:48.164Z,30.16
2019-03-19T09:37:18.471Z,31.58
2019-03-19T09:39:49.150Z,32.64
2019-03-19T09:42:19.460Z,31.83
2019-03-19T09:44:58.445Z,31.41
2019-03-19T09:47:23.061Z,30.73
2019-03-19T09:49:53.692Z,30.75
2019-03-19T09:52:24.237Z,29.41
2019-03-19T09:54:55.087Z,29.66
2019-03-19T09:57:25.686Z,31.13
2019-03-19T09:59:56.479Z,29.42
2019-03-19T10:02:27.120Z,29.38
2019-03-19T10:04:57.583Z,28.50
2019-03-19T10:07:28.187Z,28.61
2019-03-19T10:09:58.466Z,29.46
2019-03-19T10:12:29.075Z,30.80
2019-03-19T10:14:59.382Z,31.16
2019-03-19T10:17:30.366Z,31.38
2019-03-19T10:20:00.971Z,32.46
2019-03-19T10:22:33.927Z,32.46
2019-03-19T10:25:05.080Z,31.48
2019-03-19T10:27:35.792Z,31.91
2019-03-19T10:30:09.397Z,32.60
2019-03-19T10:32:40.283Z,33.33
2019-03-19T10:35:10.998Z,31.86
2019-03-19T10:37:41.582Z,31.41
2019-03-19T10:40:13.209Z,30.68
2019-03-19T10:42:43.882Z,30.92
2019-03-19T10:45:15.812Z,31.50
2019-03-19T10:47:46.424Z,31.50
2019-03-19T10:50:20.415Z,29.24
2019-03-19T10:52:51.268Z,29.24
2019-03-19T10:55:24.062Z,29.79
2019-03-19T10:57:54.637Z,30.14
2019-03-19T11:00:25.406Z,30.63
2019-03-19T11:02:56.078Z,29.74
2019-03-19T11:05:26.745Z,29.13
2019-03-19T11:07:57.178Z,28.62
2019-03-19T11:10:27.856Z,26.63
2019-03-19T11:12:58.443Z,22.64
2019-03-19T11:15:31.478Z,19.07
2019-03-19T11:18:01.297Z,16.65
2019-03-19T11:20:31.593Z,15.09
2019-03-19T11:23:01.915Z,14.24
2019-03-19T11:25:32.254Z,13.53
2019-03-19T11:28:02.594Z,13.07
2019-03-19T11:30:33.038Z,12.58
2019-03-19T11:33:03.585Z,12.16
2019-03-19T11:35:33.864Z,12.06
2019-03-19T11:38:04.469Z,11.97
2019-03-19T11:40:35.092Z,12.07
2019-03-19T11:43:05.584Z,11.80
2019-03-19T11:45:35.898Z,11.60
2019-03-19T11:48:06.716Z,11.65
2019-03-19T11:50:37.270Z,11.84
2019-03-19T11:53:07.748Z,11.78
2019-03-19T11:55:38.304Z,11.79
2019-03-19T11:58:08.652Z,11.86
2019-03-19T12:00:41.904Z,11.76
2019-03-19T12:03:16.216Z,11.64
2019-03-19T12:05:44.356Z,11.61
2019-03-19T12:08:14.645Z,11.60
2019-03-19T12:10:45.233Z,11.63
2019-03-19T12:13:15.554Z,11.69
2019-03-19T12:15:46.162Z,11.71
2019-03-19T12:18:16.436Z,11.76
2019-03-19T12:20:47.202Z,11.84
2019-03-19T12:23:17.520Z,11.90
2019-03-19T12:25:48.861Z,11.79
2019-03-19T12:28:19.458Z,11.67
2019-03-19T12:30:49.977Z,11.65
2019-03-19T12:33:20.275Z,11.45
2019-03-19T12:35:51.874Z,11.24
2019-03-19T12:38:22.420Z,11.19
2019-03-19T12:40:52.953Z,11.28
2019-03-19T12:43:23.276Z,11.37
2019-03-19T12:45:53.576Z,11.50
2019-03-19T12:48:24.159Z,11.62
2019-03-19T12:50:54.523Z,11.76
2019-03-19T12:53:25.089Z,11.89
2019-03-19T12:55:55.399Z,12.04
2019-03-19T12:58:25.721Z,12.04
2019-03-19T13:00:56.157Z,11.99
2019-03-19T13:03:26.482Z,11.99
2019-03-19T13:05:57.795Z,12.28
2019-03-19T13:08:29.312Z,12.68
2019-03-19T13:10:59.669Z,13.00
2019-03-19T13:13:29.989Z,13.24
2019-03-19T13:16:00.262Z,13.23
2019-03-19T13:18:31.027Z,13.43
2019-03-19T13:21:01.371Z,13.93
2019-03-19T13:23:32.594Z,14.36
2019-03-19T13:26:02.878Z,14.36
2019-03-19T13:28:33.278Z,14.51
2019-03-19T13:31:03.840Z,14.95
2019-03-19T13:33:34.162Z,15.24
2019-03-19T13:36:04.886Z,15.42
2019-03-19T13:38:35.276Z,15.27
2019-03-19T13:41:05.957Z,15.27
2019-03-19T13:43:36.542Z,15.14
2019-03-19T13:46:08.859Z,14.85
2019-03-19T13:48:39.159Z,14.49
2019-03-19T13:51:09.765Z,14.58
2019-03-19T13:53:40.361Z,14.69
2019-03-19T13:56:13.857Z,14.67
2019-03-19T13:58:43.102Z,14.50
2019-03-19T14:01:13.473Z,14.23
2019-03-19T14:03:44.047Z,13.96
2019-03-19T14:06:15.786Z,13.93
2019-03-19T14:08:46.287Z,13.76
2019-03-19T14:11:18.810Z,13.80
2019-03-19T14:13:49.289Z,13.92
2019-03-19T14:16:21.032Z,14.06
2019-03-19T14:18:51.937Z,14.11
2019-03-19T14:21:22.456Z,14.16
2019-03-19T14:23:52.780Z,14.14
2019-03-19T14:26:23.373Z,14.15
2019-03-19T14:28:53.853Z,14.12
2019-03-19T14:31:24.785Z,14.12
2019-03-19T14:33:55.408Z,14.30
2019-03-19T14:36:25.729Z,14.35
2019-03-19T14:38:56.450Z,14.32
2019-03-19T14:41:26.879Z,13.89
2019-03-19T14:43:57.228Z,13.51
2019-03-19T14:46:27.588Z,13.25
2019-03-19T14:48:58.130Z,13.28
2019-03-19T14:51:28.420Z,13.45
2019-03-19T14:53:59.024Z,13.65
2019-03-19T14:56:29.376Z,13.55
2019-03-19T14:59:01.493Z,13.06
2019-03-19T15:01:31.989Z,12.91
2019-03-19T15:04:04.198Z,12.88
2019-03-19T15:06:34.502Z,12.72
2019-03-19T15:09:06.385Z,12.56
2019-03-19T15:11:36.790Z,12.46
2019-03-19T15:14:07.229Z,12.41
2019-03-19T15:16:38.634Z,12.41
2019-03-19T15:19:08.971Z,12.44
2019-03-19T15:21:39.346Z,12.45
2019-03-19T15:24:09.743Z,12.48
2019-03-19T15:26:40.421Z,12.65
2019-03-19T15:29:10.757Z,12.65
2019-03-19T15:31:43.187Z,12.65
2019-03-19T15:34:13.494Z,12.51
2019-03-19T15:36:44.154Z,12.32
2019-03-19T15:39:14.779Z,12.28
2019-03-19T15:41:45.387Z,12.21
2019-03-19T15:44:15.641Z,12.04
2019-03-19T15:46:48.038Z,11.87
2019-03-19T15:49:18.530Z,11.71
2019-03-19T15:51:49.187Z,11.53
2019-03-19T15:54:19.645Z,11.44
2019-03-19T15:56:53.764Z,11.31
2019-03-19T15:59:24.077Z,11.21
2019-03-19T16:01:56.584Z,11.13
2019-03-19T16:04:27.125Z,11.07
2019-03-19T16:06:57.406Z,11.00
2019-03-19T16:09:27.762Z,10.94
2019-03-19T16:11:58.054Z,10.93
2019-03-19T16:14:28.710Z,10.95
2019-03-19T16:16:59.095Z,10.95
2019-03-19T16:19:29.735Z,10.98
2019-03-19T16:22:00.137Z,11.02
2019-03-19T16:24:30.765Z,11.05
2019-03-19T16:27:01.165Z,11.07
2019-03-19T16:29:31.955Z,11.08
2019-03-19T16:32:02.262Z,11.09
2019-03-19T16:34:32.929Z,11.10
2019-03-19T16:37:03.232Z,11.08
2019-03-19T16:39:35.290Z,11.08
2019-03-19T16:42:05.838Z,11.03
2019-03-19T16:44:37.233Z,10.96
2019-03-19T16:47:07.539Z,10.85
2019-03-19T16:49:39.199Z,10.70
2019-03-19T16:52:09.707Z,10.52
2019-03-19T16:54:40.096Z,10.33
2019-03-19T16:57:10.371Z,10.13
2019-03-19T16:59:40.659Z,9.90
2019-03-19T17:02:11.244Z,9.48
2019-03-19T17:04:41.611Z,9.48
2019-03-19T17:07:11.929Z,9.30
2019-03-19T17:09:42.277Z,9.07
2019-03-19T17:12:12.949Z,8.93
2019-03-19T17:14:44.595Z,8.84
2019-03-19T17:17:15.175Z,8.73
2019-03-19T17:19:45.547Z,8.62
2019-03-19T17:22:16.212Z,8.48
2019-03-19T17:24:46.538Z,8.34
2019-03-19T17:27:18.190Z,8.15
2019-03-19T17:29:48.562Z,7.97
2019-03-19T17:32:19.102Z,7.81
2019-03-19T17:34:49.456Z,7.73
2019-03-19T17:37:20.765Z,7.68
2019-03-19T17:39:51.437Z,7.59
2019-03-19T17:42:22.096Z,7.48
2019-03-19T17:44:53.126Z,7.37
2019-03-19T17:47:23.518Z,7.32
2019-03-19T17:49:54.137Z,7.30
2019-03-19T17:52:24.466Z,7.22
2019-03-19T17:54:54.795Z,7.14
2019-03-19T17:57:26.749Z,7.02
2019-03-19T17:59:57.834Z,6.91
2019-03-19T18:02:28.255Z,6.82
2019-03-19T18:04:58.875Z,6.69
2019-03-19T18:07:29.205Z,6.59
2019-03-19T18:10:00.751Z,6.51
2019-03-19T18:12:31.292Z,6.49
2019-03-19T18:15:01.852Z,6.42
2019-03-19T18:17:32.330Z,6.32
2019-03-19T18:20:04.189Z,6.36
2019-03-19T18:22:34.523Z,6.38
2019-03-19T18:25:05.846Z,6.31
2019-03-19T18:27:36.354Z,6.48
2019-03-19T18:30:07.795Z,6.40
2019-03-19T18:32:38.094Z,6.30
2019-03-19T18:35:09.873Z,6.26
2019-03-19T18:37:40.335Z,6.14
2019-03-19T18:40:10.710Z,6.05
2019-03-19T18:42:42.043Z,5.95
2019-03-19T18:45:12.708Z,5.87
2019-03-19T18:47:43.215Z,5.86
2019-03-19T18:50:14.081Z,5.81
2019-03-19T18:52:44.636Z,5.73
2019-03-19T18:55:15.143Z,5.65
2019-03-19T18:57:45.473Z,5.56
2019-03-19T19:00:16.297Z,5.52
2019-03-19T19:02:50.351Z,5.50
2019-03-19T19:05:19.110Z,5.47
2019-03-19T19:07:49.624Z,5.49
2019-03-19T19:10:21.315Z,5.55
2019-03-19T19:12:51.816Z,5.61
2019-03-19T19:15:22.194Z,5.71
2019-03-19T19:17:55.105Z,5.68
2019-03-19T19:20:25.495Z,5.77
2019-03-19T19:22:57.671Z,5.79
2019-03-19T19:25:28.045Z,5.77
2019-03-19T19:27:59.636Z,5.68
2019-03-19T19:30:29.997Z,5.60
2019-03-19T19:33:02.934Z,5.52
2019-03-19T19:35:35.134Z,5.43
2019-03-19T19:38:06.642Z,5.40
2019-03-19T19:40:37.370Z,5.42
2019-03-19T19:43:07.713Z,5.36
2019-03-19T19:45:38.380Z,5.25
2019-03-19T19:48:08.813Z,5.14
2019-03-19T19:50:39.137Z,5.11
2019-03-19T19:53:09.558Z,5.10
2019-03-19T19:55:40.647Z,5.19
2019-03-19T19:58:10.977Z,5.20
2019-03-19T20:00:41.364Z,5.11
2019-03-19T20:03:12.788Z,5.00
2019-03-19T20:05:43.161Z,4.96
2019-03-19T20:08:13.528Z,4.89
2019-03-19T20:10:46.502Z,4.78
2019-03-19T20:13:16.901Z,4.79
2019-03-19T20:15:49.247Z,4.81
2019-03-19T20:18:19.738Z,4.91
2019-03-19T20:20:50.386Z,4.93
2019-03-19T20:23:20.725Z,4.90
2019-03-19T20:25:51.395Z,4.90
2019-03-19T20:28:22.657Z,4.99
2019-03-19T20:30:53.057Z,5.04
2019-03-19T20:33:25.356Z,4.97
2019-03-19T20:35:55.967Z,4.88
2019-03-19T20:38:26.554Z,4.82
2019-03-19T20:40:56.899Z,4.78
2019-03-19T20:43:27.604Z,4.76
2019-03-19T20:45:57.979Z,4.75
2019-03-19T20:48:30.625Z,4.72
2019-03-19T20:51:01.092Z,4.68
2019-03-19T20:53:32.697Z,4.61
2019-03-19T20:56:04.571Z,4.63
2019-03-19T20:58:43.158Z,4.65
2019-03-19T21:01:07.242Z,4.64
2019-03-19T21:03:37.675Z,4.70
2019-03-19T21:06:08.170Z,4.76
2019-03-19T21:08:38.493Z,4.76
2019-03-19T21:11:08.874Z,4.72
2019-03-19T21:13:40.227Z,4.62
2019-03-19T21:16:10.596Z,4.54
2019-03-19T21:18:41.849Z,4.48
2019-03-19T21:21:12.282Z,4.53
2019-03-19T21:23:42.852Z,4.51
2019-03-19T21:26:14.206Z,4.51
2019-03-19T21:28:45.374Z,4.38
2019-03-19T21:31:15.997Z,4.23
2019-03-19T21:33:51.365Z,4.16
2019-03-19T21:36:21.922Z,4.11
2019-03-19T21:38:52.423Z,3.97
2019-03-19T21:41:23.666Z,3.86
2019-03-19T21:43:54.011Z,3.91
2019-03-19T21:46:26.508Z,3.89
2019-03-19T21:48:56.843Z,3.90
2019-03-19T21:51:28.417Z,3.90
2019-03-19T21:53:58.729Z,3.92
2019-03-19T21:56:29.082Z,3.93
2019-03-19T21:58:59.507Z,3.94
2019-03-19T22:01:30.142Z,3.90
2019-03-19T22:04:03.349Z,3.82
2019-03-19T22:06:32.503Z,3.71
2019-03-19T22:09:02.817Z,3.66
2019-03-19T22:11:34.828Z,3.67
2019-03-19T22:14:05.128Z,3.69
2019-03-19T22:16:36.412Z,3.73
2019-03-19T22:19:06.774Z,3.76
2019-03-19T22:21:38.901Z,3.76
2019-03-19T22:24:09.483Z,3.76
2019-03-19T22:26:39.951Z,3.72
2019-03-19T22:29:12.629Z,3.72
2019-03-19T22:31:44.787Z,3.67
2019-03-19T22:34:15.119Z,3.63
2019-03-19T22:36:46.376Z,3.58
2019-03-19T22:39:16.659Z,3.55
2019-03-19T22:41:46.938Z,3.54
2019-03-19T22:44:17.538Z,3.48
2019-03-19T22:46:48.081Z,3.42
2019-03-19T22:49:18.403Z,3.39
2019-03-19T22:51:48.672Z,3.34
2019-03-19T22:54:18.959Z,3.31
2019-03-19T22:56:49.272Z,3.30
2019-03-19T22:59:19.616Z,3.31
2019-03-19T23:01:49.920Z,3.34
2019-03-19T23:04:27.193Z,3.36
2019-03-19T23:06:52.370Z,3.36
2019-03-19T23:09:22.932Z,3.37
2019-03-19T23:11:53.225Z,3.38
2019-03-19T23:14:23.954Z,3.41
2019-03-19T23:16:54.283Z,3.45
2019-03-19T23:19:25.017Z,3.52
2019-03-19T23:21:55.573Z,3.53
2019-03-19T23:24:25.839Z,3.51
2019-03-19T23:26:56.278Z,3.46
2019-03-19T23:29:27.508Z,3.44
2019-03-19T23:31:58.095Z,3.43
2019-03-19T23:34:38.227Z,3.33
2019-03-19T23:37:00.803Z,3.28
2019-03-19T23:39:31.158Z,3.35
2019-03-19T23:42:01.814Z,3.32
2019-03-19T23:44:32.402Z,3.34
2019-03-19T23:47:02.761Z,3.33
2019-03-19T23:49:33.099Z,3.28
2019-03-19T23:52:03.471Z,3.26
2019-03-19T23:54:33.745Z,3.26
2019-03-19T23:57:05.392Z,3.29
2019-03-19T23:59:35.916Z,3.23
